METAR Data
IDs: Format: Raw Decoded Include TAF

Data at: 1404 UTC 19 Jan 2019

METAR for:K42J (Keystone Airpark, FL, US)
Text:K42J 191355Z AUTO 16005KT 9SM CLR 14/11 A3004 RMK A01 TSNO
Temperature: 14.0°C ( 57°F)
Dewpoint: 11.0°C ( 52°F) [RH = 82%]
Pressure (altimeter):30.04 inches Hg (1017.4 mb)
Winds:from the SSE (160 degrees) at 6 MPH (5 knots; 2.6 m/s)
Visibility: 9 sm ( 14 km)
Ceiling:at least 12,000 feet AGL
Clouds:sky clear below 12,000 feet AGL
QC Flag:automated observation with no human augmentation

TAF for:K42J (Keystone Airpark, FL, US)
Text:No data found